Time;durP1;ratioP1;P1;durP2;ratioP2;P2;SDS_P1;SDS_P2;PMS_P1;PMS_P2;Temp;Humidity;BMP_temperature;BMP_pressure;BME280_temperature;BME280_humidity;BME280_pressure;Samples;Min_cycle;Max_cycle;Signal;HPM_P1;HPM_P2
2021/03/15 00:01:24;;;;;;;5.40;2.90;;;;;;;4.32;81.23;97569.56;5062431;28;20241;-78
2021/03/15 00:03:51;;;;;;;6.13;3.87;;;;;;;4.28;80.94;97569.66;5062403;28;20216;-76
2021/03/15 00:06:18;;;;;;;5.00;3.10;;;;;;;4.33;80.80;97571.25;5062923;28;20264;-75
2021/03/15 00:08:44;;;;;;;2.53;1.43;;;;;;;4.26;81.15;97574.84;5060665;28;20279;-75
2021/03/15 00:11:10;;;;;;;4.60;3.40;;;;;;;4.22;81.57;97578.38;5062204;28;20369;-77
2021/03/15 00:13:36;;;;;;;5.13;3.53;;;;;;;4.30;80.68;97573.03;5062778;28;20674;-76
2021/03/15 00:16:02;;;;;;;4.80;3.30;;;;;;;4.34;80.52;97566.94;5062175;28;20237;-76
2021/03/15 00:18:30;;;;;;;3.63;2.80;;;;;;;4.30;80.45;97566.19;5063111;28;20632;-76
2021/03/15 00:20:56;;;;;;;1.97;1.60;;;;;;;4.23;81.04;97570.63;5061901;28;20816;-75
2021/03/15 00:23:23;;;;;;;5.47;3.37;;;;;;;4.28;80.49;97565.34;5062052;28;20213;-75
2021/03/15 00:25:50;;;;;;;3.37;2.40;;;;;;;4.34;80.78;97565.22;5061816;28;20243;-76
2021/03/15 00:28:16;;;;;;;4.17;2.77;;;;;;;4.23;80.40;97562.88;5063142;28;20236;-75
2021/03/15 00:30:42;;;;;;;6.03;3.20;;;;;;;4.30;80.17;97557.56;5061580;28;20267;-75
2021/03/15 00:33:08;;;;;;;4.87;3.83;;;;;;;4.30;80.41;97565.31;5062407;28;20217;-78
2021/03/15 00:35:34;;;;;;;4.77;3.20;;;;;;;4.28;80.34;97561.91;5060522;28;20242;-77
2021/03/15 00:38:00;;;;;;;1.03;0.80;;;;;;;4.24;80.58;97568.88;5062492;28;20233;-76
2021/03/15 00:40:27;;;;;;;5.50;3.67;;;;;;;4.36;79.72;97566.03;5061879;28;20340;-78
2021/03/15 00:42:54;;;;;;;1.47;1.00;;;;;;;4.34;79.52;97562.63;5062138;28;20224;-76
2021/03/15 00:45:22;;;;;;;5.70;2.90;;;;;;;4.28;79.74;97561.91;5062190;28;20216;-77
2021/03/15 00:47:49;;;;;;;1.43;0.93;;;;;;;4.25;80.07;97557.69;5062625;28;20233;-76
2021/03/15 00:50:19;;;;;;;3.47;1.53;;;;;;;4.18;80.53;97559.53;5062570;28;20223;-75
2021/03/15 00:52:45;;;;;;;1.63;1.10;;;;;;;4.10;80.44;97555.41;5062161;28;20239;-76
2021/03/15 00:55:11;;;;;;;4.70;2.80;;;;;;;4.11;80.52;97562.28;5061788;28;20317;-75
2021/03/15 00:57:38;;;;;;;3.43;2.67;;;;;;;4.14;80.88;97559.66;5062417;28;20233;-75
2021/03/15 01:00:07;;;;;;;3.07;2.13;;;;;;;4.14;80.42;97560.50;5061549;28;20220;-75
2021/03/15 01:02:33;;;;;;;4.20;2.50;;;;;;;4.14;80.26;97557.91;5062347;28;20277;-75
2021/03/15 01:04:59;;;;;;;3.57;1.93;;;;;;;4.13;80.18;97560.53;5062032;28;20209;-76
2021/03/15 01:07:25;;;;;;;1.70;1.13;;;;;;;4.10;79.92;97555.41;5061201;28;20294;-78
2021/03/15 01:09:51;;;;;;;2.60;1.93;;;;;;;4.04;80.05;97543.50;5061952;28;20220;-75
2021/03/15 01:12:17;;;;;;;1.13;0.60;;;;;;;4.03;80.97;97547.81;5061847;28;20241;-76
2021/03/15 01:14:44;;;;;;;2.30;1.47;;;;;;;4.05;80.02;97546.06;5059801;28;20375;-76
2021/03/15 01:17:12;;;;;;;1.43;1.00;;;;;;;3.99;80.41;97546.19;5061497;28;21024;-77
2021/03/15 01:19:38;;;;;;;1.10;0.63;;;;;;;4.02;80.40;97548.69;5062135;28;20214;-75
2021/03/15 01:22:04;;;;;;;5.70;2.43;;;;;;;4.01;80.63;97547.00;5061462;28;20255;-76
2021/03/15 01:24:30;;;;;;;5.23;1.20;;;;;;;4.03;80.19;97545.25;5062644;28;20224;-76
2021/03/15 01:26:56;;;;;;;3.47;2.20;;;;;;;4.16;79.92;97542.41;5061232;28;20252;-76
2021/03/15 01:29:22;;;;;;;3.80;2.93;;;;;;;4.30;79.23;97524.00;5062496;28;20237;-75
2021/03/15 01:31:49;;;;;;;3.40;2.63;;;;;;;4.36;78.95;97524.72;5061080;28;21000;-76
2021/03/15 01:34:15;;;;;;;6.00;2.53;;;;;;;4.30;79.00;97527.44;5062475;28;20217;-75
2021/03/15 01:36:41;;;;;;;4.60;2.73;;;;;;;4.29;79.08;97528.31;5064622;28;20233;-75
2021/03/15 01:39:07;;;;;;;3.00;2.23;;;;;;;4.28;78.91;97521.44;5065715;28;20809;-77
2021/03/15 01:41:33;;;;;;;4.53;3.07;;;;;;;4.31;79.07;97516.22;5065708;28;20286;-75
2021/03/15 01:43:59;;;;;;;1.93;0.80;;;;;;;4.27;78.81;97519.75;5066127;28;20223;-75
2021/03/15 01:46:25;;;;;;;3.73;2.77;;;;;;;4.22;79.38;97512.13;5065130;28;20233;-76
2021/03/15 01:48:52;;;;;;;5.87;3.60;;;;;;;4.22;79.41;97512.13;5066080;28;20229;-76
2021/03/15 01:51:19;;;;;;;1.67;1.10;;;;;;;4.22;79.43;97513.84;5065617;28;20245;-77
2021/03/15 01:53:45;;;;;;;2.07;1.70;;;;;;;4.13;80.19;97512.31;5064979;28;20228;-75
2021/03/15 01:56:12;;;;;;;1.20;1.10;;;;;;;4.09;80.75;97509.88;5064873;28;20336;-75
2021/03/15 01:58:38;;;;;;;4.33;2.97;;;;;;;4.18;80.32;97500.16;5065827;28;20241;-75
2021/03/15 02:01:04;;;;;;;6.40;3.23;;;;;;;4.16;80.18;97507.09;5064874;28;20248;-76
2021/03/15 02:03:30;;;;;;;6.30;3.70;;;;;;;4.20;80.17;97500.13;5066060;28;20223;-75
2021/03/15 02:05:57;;;;;;;5.67;3.97;;;;;;;4.12;80.79;97499.44;5065483;28;20743;-75
2021/03/15 02:08:23;;;;;;;4.83;3.17;;;;;;;4.09;81.03;97500.38;5062907;28;20242;-75
2021/03/15 02:10:49;;;;;;;4.73;1.73;;;;;;;4.03;81.31;97498.78;5064625;28;20247;-75
2021/03/15 02:13:49;;;;;;;4.13;2.37;;;;;;;4.10;81.47;97494.34;5065766;28;20216;-75
2021/03/15 02:16:22;;;;;;;6.47;5.10;;;;;;;4.12;81.19;97502.03;5065049;28;20244;-75
2021/03/15 02:18:56;;;;;;;8.03;6.20;;;;;;;4.27;80.57;97493.09;5065193;28;20241;-76
2021/03/15 02:21:52;;;;;;;6.30;3.07;;;;;;;4.25;80.62;97495.72;5061970;28;20530;-77
2021/03/15 02:24:25;;;;;;;4.80;3.97;;;;;;;4.18;81.00;97494.16;5065841;28;20217;-76
2021/03/15 02:27:16;;;;;;;9.20;5.60;;;;;;;4.26;81.06;97492.22;5061750;28;20240;-75
2021/03/15 02:30:18;;;;;;;7.20;4.80;;;;;;;4.26;80.72;97487.06;5057008;28;20218;-76
2021/03/15 02:33:09;;;;;;;7.73;5.50;;;;;;;4.24;81.04;97484.53;5041910;28;20233;-77
2021/03/15 02:35:38;;;;;;;9.17;5.80;;;;;;;4.28;80.98;97495.63;5062795;28;20244;-76
2021/03/15 02:38:06;;;;;;;10.50;5.50;;;;;;;4.42;80.57;97490.16;5064812;28;20242;-77
2021/03/15 02:40:34;;;;;;;9.43;5.87;;;;;;;4.46;80.57;97493.50;5062423;28;20249;-76
2021/03/15 02:43:03;;;;;;;6.70;5.20;;;;;;;4.55;79.83;97488.09;5064600;28;20221;-76
2021/03/15 02:45:30;;;;;;;9.23;6.73;;;;;;;4.64;79.28;97475.78;5064457;28;20237;-77
2021/03/15 02:47:57;;;;;;;6.87;3.93;;;;;;;4.48;79.96;97478.81;5062145;28;20727;-77
2021/03/15 02:50:24;;;;;;;9.03;6.73;;;;;;;4.43;79.76;97469.44;5065627;28;20237;-75
2021/03/15 02:52:51;;;;;;;8.10;6.47;;;;;;;4.51;79.96;97465.84;5064275;28;20278;-75
2021/03/15 02:55:21;;;;;;;9.23;6.27;;;;;;;4.58;79.43;97468.22;5064307;28;20624;-75
2021/03/15 02:57:49;;;;;;;10.60;7.10;;;;;;;4.64;78.67;97467.22;5064497;28;20779;-76
2021/03/15 03:00:16;;;;;;;7.27;5.80;;;;;;;4.59;79.14;97466.47;5064229;28;20232;-79
2021/03/15 03:02:43;;;;;;;7.63;5.90;;;;;;;4.54;79.06;97466.59;5065391;28;20271;-75
2021/03/15 03:05:10;;;;;;;6.17;5.23;;;;;;;4.52;79.83;97473.53;5063438;28;20209;-74
2021/03/15 03:07:38;;;;;;;7.83;5.83;;;;;;;4.59;79.46;97474.22;5063810;28;20749;-76
2021/03/15 03:10:07;;;;;;;8.70;6.67;;;;;;;4.66;78.70;97469.75;5063885;28;20483;-76
2021/03/15 03:12:34;;;;;;;7.37;5.93;;;;;;;4.68;78.46;97465.41;5065594;28;20235;-77
2021/03/15 03:15:01;;;;;;;9.30;6.83;;;;;;;4.62;78.93;97472.41;5063651;28;20862;-75
2021/03/15 03:17:28;;;;;;;11.57;6.70;;;;;;;4.63;78.90;97465.50;5063694;28;20324;-76
2021/03/15 03:19:55;;;;;;;9.47;6.67;;;;;;;4.63;78.46;97465.50;5060943;28;20217;-74
2021/03/15 03:22:21;;;;;;;8.90;6.90;;;;;;;4.66;78.42;97474.91;5063886;28;20240;-75
2021/03/15 03:24:47;;;;;;;7.50;5.90;;;;;;;4.58;78.71;97462.22;5062969;28;20217;-76
2021/03/15 03:27:15;;;;;;;10.23;6.33;;;;;;;4.60;78.42;97455.25;5063311;28;20237;-76
2021/03/15 03:29:42;;;;;;;9.10;6.27;;;;;;;4.63;78.98;97455.16;5061070;28;20224;-77
2021/03/15 03:32:09;;;;;;;9.10;6.53;;;;;;;4.64;78.70;97451.72;5063139;28;20233;-75
2021/03/15 03:34:35;;;;;;;9.07;5.97;;;;;;;4.63;78.73;97453.44;5061327;28;20217;-75
2021/03/15 03:37:01;;;;;;;10.10;7.13;;;;;;;4.66;78.60;97452.50;5063153;28;20237;-75
2021/03/15 03:39:27;;;;;;;8.70;7.20;;;;;;;4.64;78.37;97447.38;5063922;28;20268;-76
2021/03/15 03:41:53;;;;;;;7.10;6.00;;;;;;;4.60;78.90;97455.25;5062553;28;20244;-77
2021/03/15 03:44:20;;;;;;;10.67;7.10;;;;;;;4.59;79.22;97449.22;5063842;28;20221;-75
2021/03/15 03:46:48;;;;;;;9.50;6.63;;;;;;;4.59;79.77;97443.22;5062266;28;20752;-77
2021/03/15 03:49:15;;;;;;;10.73;7.23;;;;;;;4.58;79.86;97436.38;5063456;28;20303;-75
2021/03/15 03:51:44;;;;;;;9.07;7.10;;;;;;;4.62;79.59;97438.00;5060113;28;20245;-75
2021/03/15 03:54:13;;;;;;;11.57;7.87;;;;;;;4.54;80.33;97435.59;5062853;28;20217;-76
2021/03/15 03:56:45;;;;;;;7.53;6.00;;;;;;;4.35;81.53;97439.53;5060912;28;20245;-76
2021/03/15 03:59:15;;;;;;;6.47;4.10;;;;;;;4.31;82.42;97436.19;5062520;28;20240;-75
2021/03/15 04:01:45;;;;;;;4.87;3.27;;;;;;;4.21;84.31;97445.91;5063370;28;20245;-75
2021/03/15 04:04:12;;;;;;;8.63;5.83;;;;;;;4.10;83.92;97444.44;5062821;28;20218;-76
2021/03/15 04:06:40;;;;;;;4.40;2.90;;;;;;;4.03;84.44;97433.44;5061972;28;20248;-77
2021/03/15 04:09:12;;;;;;;7.40;5.37;;;;;;;4.02;85.18;97442.88;5062615;28;20738;-75
2021/03/15 04:11:41;;;;;;;11.30;4.57;;;;;;;4.03;84.96;97438.59;5061635;28;20252;-77
2021/03/15 04:14:08;;;;;;;9.23;6.77;;;;;;;3.98;85.42;97430.94;5062184;28;20225;-75
2021/03/15 04:16:35;;;;;;;6.43;5.07;;;;;;;4.14;85.25;97430.59;5062537;28;20248;-75
2021/03/15 04:19:04;;;;;;;10.10;5.97;;;;;;;4.26;84.43;97435.44;5062732;28;20272;-76
2021/03/15 04:21:32;;;;;;;7.47;5.13;;;;;;;4.23;84.56;97433.78;5062591;28;20233;-75
2021/03/15 04:23:59;;;;;;;8.33;5.97;;;;;;;4.37;83.69;97436.00;5062565;28;20213;-75
2021/03/15 04:26:26;;;;;;;8.57;5.77;;;;;;;4.43;83.68;97433.31;5062595;28;20237;-76
2021/03/15 04:28:53;;;;;;;13.10;7.13;;;;;;;4.53;83.24;97421.00;5062487;28;20240;-76
2021/03/15 04:31:20;;;;;;;9.53;6.87;;;;;;;4.58;82.57;97419.13;5062751;28;20295;-76
2021/03/15 04:33:46;;;;;;;8.47;5.93;;;;;;;4.61;82.77;97423.38;5062171;28;20293;-75
2021/03/15 04:36:15;;;;;;;10.27;6.87;;;;;;;4.63;82.72;97411.25;5061976;28;20245;-77
2021/03/15 04:38:42;;;;;;;9.30;6.37;;;;;;;4.58;83.30;97410.56;5059852;28;20845;-76
2021/03/15 04:41:09;;;;;;;7.90;6.13;;;;;;;4.60;83.23;97417.34;5062082;28;20248;-75
2021/03/15 04:43:36;;;;;;;11.47;6.53;;;;;;;4.66;82.35;97413.75;5060123;28;20227;-75
2021/03/15 04:46:02;;;;;;;8.57;6.90;;;;;;;4.70;82.48;97414.53;5063646;28;20241;-76
2021/03/15 04:48:29;;;;;;;11.37;6.90;;;;;;;4.69;82.53;97413.69;5062990;28;20272;-76
2021/03/15 04:50:57;;;;;;;9.43;7.37;;;;;;;4.71;82.42;97408.50;5060973;28;20259;-76
2021/03/15 04:53:25;;;;;;;13.03;7.57;;;;;;;4.76;81.90;97406.59;5059511;28;20313;-77
2021/03/15 04:55:51;;;;;;;9.60;6.27;;;;;;;4.70;82.80;97410.19;5061399;28;20240;-76
2021/03/15 04:58:18;;;;;;;11.63;7.33;;;;;;;4.72;82.50;97407.59;5062901;28;20259;-78
2021/03/15 05:00:46;;;;;;;8.83;6.83;;;;;;;4.73;82.14;97410.13;5059414;28;20237;-75
2021/03/15 05:03:14;;;;;;;9.20;7.07;;;;;;;4.75;82.08;97405.75;5062058;28;20212;-75
2021/03/15 05:05:40;;;;;;;10.23;7.07;;;;;;;4.73;81.87;97402.38;5060581;28;20237;-76
2021/03/15 05:08:08;;;;;;;10.93;7.70;;;;;;;4.67;82.72;97394.81;5062330;28;20245;-77
2021/03/15 05:10:35;;;;;;;11.00;7.30;;;;;;;4.70;82.38;97379.19;5061926;28;20260;-76
2021/03/15 05:13:04;;;;;;;12.20;7.40;;;;;;;4.72;82.50;97382.59;5062043;28;20220;-76
2021/03/15 05:15:30;;;;;;;9.40;7.37;;;;;;;4.71;82.43;97380.91;5061429;28;20241;-76
2021/03/15 05:17:57;;;;;;;10.43;7.20;;;;;;;4.75;82.01;97379.94;5061880;28;20229;-76
2021/03/15 05:20:25;;;;;;;11.53;6.73;;;;;;;4.69;82.60;97368.91;5062639;28;20225;-76
2021/03/15 05:22:51;;;;;;;13.93;7.63;;;;;;;4.69;82.74;97371.50;5061719;28;20221;-75
2021/03/15 05:25:18;;;;;;;9.80;7.10;;;;;;;4.69;82.42;97367.19;5062048;28;20884;-75
2021/03/15 05:27:46;;;;;;;8.73;7.03;;;;;;;4.69;82.47;97374.94;5061849;28;20277;-76
2021/03/15 05:30:14;;;;;;;14.07;7.90;;;;;;;4.69;82.71;97372.34;5060956;28;20214;-76
2021/03/15 05:32:42;;;;;;;11.27;8.00;;;;;;;4.68;82.07;97369.81;5061974;28;20221;-76
2021/03/15 05:35:10;;;;;;;10.83;7.83;;;;;;;4.62;82.50;97363.09;5061245;28;20577;-76
2021/03/15 05:37:37;;;;;;;10.90;6.93;;;;;;;4.55;83.07;97374.47;5060100;28;20237;-76
2021/03/15 05:40:06;;;;;;;11.30;8.23;;;;;;;4.58;82.99;97369.22;5061637;28;20217;-77
2021/03/15 05:42:51;;;;;;;11.10;7.67;;;;;;;4.57;83.13;97362.34;5063416;28;20227;-77
2021/03/15 05:45:26;;;;;;;11.03;7.50;;;;;;;4.50;83.40;97365.97;5061886;28;20209;-74
2021/03/15 05:48:24;;;;;;;10.57;7.50;;;;;;;4.56;83.12;97355.50;5061749;28;20237;-74
2021/03/15 05:51:15;;;;;;;8.67;6.77;;;;;;;4.52;83.38;97359.03;5061254;28;20277;-77
2021/03/15 05:54:11;;;;;;;9.97;7.03;;;;;;;4.47;84.06;97356.59;5062657;28;20655;-76
2021/03/15 05:56:59;;;;;;;10.90;7.23;;;;;;;4.48;83.73;97357.44;5061333;28;20251;-76
2021/03/15 06:00:00;;;;;;;11.73;8.00;;;;;;;4.56;83.13;97350.34;5062341;28;20238;-75
2021/03/15 06:03:00;;;;;;;13.60;7.87;;;;;;;4.54;83.29;97362.44;5053711;28;20236;-76
2021/03/15 06:05:28;;;;;;;14.03;6.57;;;;;;;4.49;83.54;97357.41;5069435;28;20206;-76
2021/03/15 06:08:02;;;;;;;17.67;7.90;;;;;;;4.54;83.12;97341.75;5064481;28;20234;-76
2021/03/15 06:10:37;;;;;;;11.40;7.23;;;;;;;4.59;83.51;97350.25;5064598;28;20241;-76
2021/03/15 06:13:04;;;;;;;17.03;7.43;;;;;;;4.60;83.22;97346.78;5064704;28;20205;-76
2021/03/15 06:15:35;;;;;;;10.23;7.00;;;;;;;4.62;83.11;97350.16;5064268;28;20242;-76
2021/03/15 06:18:04;;;;;;;13.47;6.87;;;;;;;4.66;82.77;97346.59;5061511;28;20237;-79
2021/03/15 06:20:30;;;;;;;10.00;6.00;;;;;;;4.57;83.25;97347.69;5065029;28;20245;-74
2021/03/15 06:22:56;;;;;;;12.50;6.47;;;;;;;4.67;83.07;97342.28;5063159;28;20210;-75
2021/03/15 06:25:22;;;;;;;14.87;6.93;;;;;;;4.70;83.07;97348.19;5067528;28;20787;-75
2021/03/15 06:27:49;;;;;;;8.30;4.97;;;;;;;4.76;82.20;97345.47;5067807;28;20244;-77
2021/03/15 06:30:16;;;;;;;5.80;3.17;;;;;;;4.72;81.85;97336.09;5067483;28;20641;-76
2021/03/15 06:32:42;;;;;;;8.07;6.20;;;;;;;4.74;81.80;97334.34;5068832;28;20210;-74
2021/03/15 06:35:10;;;;;;;9.57;5.53;;;;;;;4.81;81.35;97337.56;5066898;28;20209;-75
2021/03/15 06:37:36;;;;;;;12.23;6.10;;;;;;;4.87;80.90;97339.13;5067539;28;20286;-76
2021/03/15 06:40:03;;;;;;;12.87;5.83;;;;;;;4.82;81.01;97332.38;5067384;28;20221;-75
2021/03/15 06:42:30;;;;;;;17.57;8.07;;;;;;;4.90;80.69;97328.72;5069295;28;20256;-76
2021/03/15 06:44:56;;;;;;;45.50;13.90;;;;;;;4.91;80.49;97333.00;5064294;28;20213;-76
2021/03/15 06:47:23;;;;;;;48.30;14.97;;;;;;;4.96;80.60;97328.53;5066928;28;20244;-74
2021/03/15 06:49:49;;;;;;;24.57;7.87;;;;;;;4.96;80.22;97329.41;5067246;28;20225;-76
2021/03/15 06:52:16;;;;;;;18.40;7.57;;;;;;;5.01;80.54;97326.66;5067019;28;20241;-75
2021/03/15 06:54:42;;;;;;;9.33;5.23;;;;;;;5.06;80.42;97332.53;5068415;28;20226;-75
2021/03/15 06:57:18;;;;;;;7.93;4.70;;;;;;;5.08;80.14;97333.34;5066664;28;20266;-75
2021/03/15 06:59:48;;;;;;;7.17;4.60;;;;;;;5.10;80.41;97328.13;5068336;28;20224;-74
2021/03/15 07:02:25;;;;;;;7.93;4.50;;;;;;;5.12;80.50;97323.75;5067022;28;20237;-75
2021/03/15 07:04:52;;;;;;;8.90;5.37;;;;;;;5.16;80.17;97331.34;5066824;28;20217;-74
2021/03/15 07:07:26;;;;;;;7.03;5.13;;;;;;;5.16;80.33;97327.94;5066259;28;20254;-75
2021/03/15 07:09:54;;;;;;;8.13;5.17;;;;;;;5.19;80.24;97320.94;5066911;28;20213;-76
2021/03/15 07:12:21;;;;;;;7.37;4.73;;;;;;;5.16;80.52;97310.69;5067478;28;20233;-75
2021/03/15 07:14:47;;;;;;;10.17;4.93;;;;;;;5.20;80.26;97312.31;5066495;28;20224;-75
2021/03/15 07:17:21;;;;;;;6.83;4.33;;;;;;;5.16;80.35;97310.69;5066909;28;20245;-75
2021/03/15 07:19:47;;;;;;;5.43;4.40;;;;;;;5.15;80.81;97303.84;5064246;28;20217;-75
2021/03/15 07:22:26;;;;;;;9.43;5.30;;;;;;;5.15;80.79;97301.25;5066184;28;20264;-76
2021/03/15 07:25:05;;;;;;;9.63;5.40;;;;;;;5.18;80.78;97303.75;5066385;28;20612;-76
2021/03/15 07:27:32;;;;;;;6.60;5.10;;;;;;;5.18;81.21;97303.75;5067025;28;20225;-74
2021/03/15 07:29:58;;;;;;;9.33;5.40;;;;;;;5.17;81.47;97303.78;5066836;28;20213;-76
2021/03/15 07:32:40;;;;;;;8.37;5.00;;;;;;;5.18;81.59;97303.75;5067113;28;20364;-75
2021/03/15 07:35:28;;;;;;;8.93;6.07;;;;;;;5.17;81.89;97301.22;5066367;28;20263;-76
2021/03/15 07:37:55;;;;;;;9.47;5.40;;;;;;;5.10;82.20;97305.69;5065876;28;20316;-77
2021/03/15 07:40:43;;;;;;;9.93;5.27;;;;;;;5.07;82.74;97303.19;5063351;28;20223;-76
2021/03/15 07:43:11;;;;;;;10.13;5.40;;;;;;;5.07;82.26;97300.63;5065443;28;20221;-77
2021/03/15 07:45:40;;;;;;;9.30;6.00;;;;;;;5.03;82.68;97297.28;5065880;28;20244;-77
2021/03/15 07:48:12;;;;;;;7.63;6.00;;;;;;;5.00;83.56;97301.72;5066040;28;20702;-76
2021/03/15 07:50:39;;;;;;;11.13;5.63;;;;;;;4.97;84.09;97294.06;5065953;28;20241;-79
2021/03/15 07:53:07;;;;;;;7.93;5.27;;;;;;;4.88;85.21;97296.91;5065884;28;20217;-76
2021/03/15 07:55:34;;;;;;;8.17;5.30;;;;;;;4.93;84.66;97305.38;5066668;28;20244;-76
2021/03/15 07:58:00;;;;;;;11.07;5.63;;;;;;;4.91;84.86;97304.56;5065778;28;20247;-77
2021/03/15 08:00:27;;;;;;;7.93;5.20;;;;;;;4.88;85.16;97304.66;5065980;28;20244;-77
2021/03/15 08:02:55;;;;;;;9.07;5.83;;;;;;;4.91;85.65;97302.00;5065860;28;20217;-76
2021/03/15 08:05:21;;;;;;;9.73;5.17;;;;;;;4.91;84.96;97308.00;5065230;28;20244;-76
2021/03/15 08:07:47;;;;;;;9.40;5.83;;;;;;;4.93;84.73;97305.38;5065248;28;20229;-76
2021/03/15 08:10:15;;;;;;;9.80;5.23;;;;;;;4.81;85.47;97309.97;5065301;28;20274;-75
2021/03/15 08:12:44;;;;;;;10.77;5.77;;;;;;;4.79;85.95;97310.94;5065995;28;20236;-76
2021/03/15 08:15:12;;;;;;;8.93;5.07;;;;;;;4.76;86.33;97306.72;5064708;28;20375;-76
2021/03/15 08:17:43;;;;;;;13.67;6.57;;;;;;;4.70;87.33;97312.03;5065997;28;20818;-77
2021/03/15 08:20:10;;;;;;;8.13;4.63;;;;;;;4.66;89.13;97302.69;5065090;28;20430;-76
2021/03/15 08:22:38;;;;;;;14.03;5.97;;;;;;;4.69;88.77;97310.34;5066719;28;20224;-77
2021/03/15 08:25:07;;;;;;;9.57;4.80;;;;;;;4.61;88.79;97297.66;5065866;28;20222;-76
2021/03/15 08:27:37;;;;;;;6.50;4.67;;;;;;;4.62;88.17;97303.66;5065879;28;20306;-75
2021/03/15 08:30:04;;;;;;;9.27;4.93;;;;;;;4.66;87.91;97299.25;5065262;28;20274;-75
2021/03/15 08:32:34;;;;;;;3.93;2.37;;;;;;;4.48;92.83;97295.47;5065833;28;20221;-76
2021/03/15 08:35:00;;;;;;;8.50;4.30;;;;;;;4.41;97.45;97297.34;5065064;28;20221;-76
2021/03/15 08:37:59;;;;;;;8.07;4.80;;;;;;;4.37;100.00;97291.44;5064823;28;20244;-76
2021/03/15 08:40:50;;;;;;;6.37;3.70;;;;;;;4.49;100.00;97284.25;4994386;28;20251;-76
2021/03/15 08:43:39;;;;;;;4.90;2.97;;;;;;;4.52;99.35;97286.72;5043550;28;20758;-76
2021/03/15 08:46:06;;;;;;;6.67;3.37;;;;;;;4.49;98.57;97281.66;5052283;28;20332;-77
2021/03/15 08:49:00;;;;;;;6.63;3.93;;;;;;;4.44;99.42;97279.19;5066056;28;20236;-76
2021/03/15 08:51:47;;;;;;;6.20;3.40;;;;;;;4.36;100.00;97281.16;5062162;28;20241;-79
2021/03/15 08:54:18;;;;;;;8.93;3.70;;;;;;;4.35;99.83;97277.72;5065219;28;20634;-78
2021/03/15 08:56:47;;;;;;;9.37;3.00;;;;;;;4.33;100.00;97276.91;5065197;28;20237;-76
2021/03/15 08:59:15;;;;;;;5.73;2.93;;;;;;;4.31;100.00;97268.38;5064979;28;20240;-78
2021/03/15 09:01:56;;;;;;;10.13;3.67;;;;;;;4.24;100.00;97266.84;5063769;28;20251;-76
2021/03/15 09:04:33;;;;;;;6.67;2.77;;;;;;;4.28;100.00;97265.84;5064999;28;20265;-77
2021/03/15 09:06:59;;;;;;;7.70;4.00;;;;;;;4.38;100.00;97269.06;5060857;28;20274;-77
2021/03/15 09:09:27;;;;;;;4.97;2.93;;;;;;;4.39;100.00;97266.44;5064306;28;20229;-77
2021/03/15 09:11:54;;;;;;;6.70;3.03;;;;;;;4.42;100.00;97271.50;5064391;28;20404;-76
2021/03/15 09:14:34;;;;;;;11.70;3.57;;;;;;;4.39;100.00;97263.84;5064870;28;20225;-76
2021/03/15 09:17:17;;;;;;;4.10;2.47;;;;;;;4.35;100.00;97266.56;5063684;28;20718;-78
2021/03/15 09:19:44;;;;;;;4.97;2.03;;;;;;;4.36;100.00;97263.94;5065566;28;20217;-77
2021/03/15 09:22:21;;;;;;;6.20;3.20;;;;;;;4.43;100.00;97262.88;5063840;28;20284;-78
2021/03/15 09:24:51;;;;;;;5.40;2.70;;;;;;;4.37;100.00;97263.03;5065284;28;20759;-77
2021/03/15 09:27:37;;;;;;;2.20;1.60;;;;;;;4.39;100.00;97260.41;5064575;28;20258;-76
2021/03/15 09:30:11;;;;;;;7.40;3.07;;;;;;;4.50;100.00;97252.34;5064893;28;20217;-78
2021/03/15 09:32:38;;;;;;;5.83;2.50;;;;;;;4.54;100.00;97259.13;5065282;28;20271;-76
2021/03/15 09:35:25;;;;;;;4.47;3.03;;;;;;;4.51;100.00;97246.31;5065987;28;20225;-77
2021/03/15 09:37:54;;;;;;;2.73;1.33;;;;;;;4.55;100.00;97241.00;5064166;28;20729;-77
2021/03/15 09:40:22;;;;;;;1.10;1.00;;;;;;;4.42;100.00;97248.25;5064057;28;20703;-78
2021/03/15 09:42:49;;;;;;;3.70;2.80;;;;;;;4.51;100.00;97243.72;5063663;28;20220;-76
2021/03/15 09:45:25;;;;;;;6.23;2.97;;;;;;;4.56;100.00;97236.72;5064283;28;20268;-78
2021/03/15 09:47:51;;;;;;;5.13;4.17;;;;;;;4.63;100.00;97240.78;5062850;28;20236;-77
2021/03/15 09:50:19;;;;;;;4.47;3.40;;;;;;;4.73;100.00;97242.22;5064262;28;20216;-76
2021/03/15 09:52:46;;;;;;;4.50;3.13;;;;;;;4.75;100.00;97240.41;5064143;28;20217;-77
2021/03/15 09:55:12;;;;;;;6.27;4.13;;;;;;;4.81;100.00;97240.22;5063435;28;20309;-78
2021/03/15 09:57:38;;;;;;;4.40;3.47;;;;;;;4.80;100.00;97241.13;5066168;28;20315;-77
2021/03/15 10:00:09;;;;;;;5.63;3.73;;;;;;;4.70;100.00;97241.44;5068128;28;20217;-77
2021/03/15 10:02:36;;;;;;;6.43;3.10;;;;;;;4.64;100.00;97245.06;5066235;28;20221;-77
2021/03/15 10:05:03;;;;;;;6.90;3.60;;;;;;;4.69;100.00;97239.75;5067907;28;20214;-76
2021/03/15 10:07:29;;;;;;;5.70;2.93;;;;;;;4.73;100.00;97233.63;5067298;28;20237;-76
2021/03/15 10:09:55;;;;;;;5.50;2.57;;;;;;;4.69;100.00;97247.50;5067530;28;20895;-77
2021/03/15 10:12:23;;;;;;;3.03;1.70;;;;;;;4.52;100.00;97248.00;5068089;28;20240;-76
2021/03/15 10:14:59;;;;;;;5.40;3.00;;;;;;;4.46;100.00;97240.44;5067146;28;20275;-77
2021/03/15 10:17:25;;;;;;;4.77;3.10;;;;;;;4.62;100.00;97241.69;5068332;28;20401;-76
2021/03/15 10:19:52;;;;;;;4.37;3.67;;;;;;;4.64;100.00;97240.72;5067491;28;20233;-77
2021/03/15 10:22:20;;;;;;;4.30;2.93;;;;;;;4.71;100.00;97236.25;5067312;28;20245;-77
2021/03/15 10:24:50;;;;;;;6.40;3.60;;;;;;;4.73;100.00;97239.63;5067642;28;20217;-78
2021/03/15 10:27:18;;;;;;;6.40;3.73;;;;;;;4.73;100.00;97239.63;5067612;28;20828;-78
2021/03/15 10:29:52;;;;;;;5.77;3.40;;;;;;;4.69;100.00;97238.03;5069049;28;20221;-76
2021/03/15 10:32:22;;;;;;;4.90;1.47;;;;;;;4.63;100.00;97233.03;5067139;28;21045;-77
2021/03/15 10:34:57;;;;;;;7.50;1.57;;;;;;;4.43;100.00;97242.22;5064789;28;20214;-77
2021/03/15 10:37:24;;;;;;;5.17;2.90;;;;;;;4.55;100.00;97232.41;5066858;28;20240;-77
2021/03/15 10:39:51;;;;;;;1.53;1.20;;;;;;;4.41;100.00;97237.97;5067415;28;20220;-77
2021/03/15 10:42:19;;;;;;;6.27;3.23;;;;;;;4.50;100.00;97231.69;5067401;28;20229;-77
2021/03/15 10:44:46;;;;;;;4.63;2.97;;;;;;;4.58;100.00;97238.34;5065332;28;20212;-76
2021/03/15 10:47:13;;;;;;;5.23;3.90;;;;;;;4.62;100.00;97233.94;5066491;28;20230;-76
2021/03/15 10:49:39;;;;;;;6.43;3.60;;;;;;;4.61;100.00;97238.25;5067624;28;20247;-78
2021/03/15 10:52:06;;;;;;;3.37;2.03;;;;;;;4.62;100.00;97236.50;5066667;28;20233;-77
2021/03/15 10:54:34;;;;;;;2.73;1.27;;;;;;;4.65;100.00;97241.59;5065083;28;20212;-78
2021/03/15 10:57:15;;;;;;;2.57;1.30;;;;;;;4.53;100.00;97237.63;5066196;28;20229;-76
2021/03/15 10:59:41;;;;;;;3.17;2.67;;;;;;;4.54;100.00;97238.47;5067346;28;20241;-78
2021/03/15 11:02:08;;;;;;;1.63;0.70;;;;;;;4.52;100.00;97235.94;5066277;28;20726;-77
2021/03/15 11:04:35;;;;;;;4.50;3.60;;;;;;;4.59;100.00;97232.25;5067499;28;20220;-77
2021/03/15 11:07:18;;;;;;;5.07;2.53;;;;;;;4.59;100.00;97236.59;5066016;28;20233;-79
2021/03/15 11:09:59;;;;;;;2.03;0.70;;;;;;;4.58;100.00;97237.50;5064680;28;20239;-77
2021/03/15 11:12:33;;;;;;;2.70;1.70;;;;;;;4.54;100.00;97233.28;5068304;28;20253;-77
2021/03/15 11:15:07;;;;;;;8.37;4.50;;;;;;;4.56;100.00;97242.72;5066638;28;20228;-76
2021/03/15 11:17:33;;;;;;;2.50;1.47;;;;;;;4.61;100.00;97242.56;5067149;28;20839;-76
2021/03/15 11:19:59;;;;;;;0.87;0.60;;;;;;;4.52;100.00;97235.06;5066591;28;20726;-79
2021/03/15 11:22:26;;;;;;;1.07;0.67;;;;;;;4.57;100.00;97243.53;5065838;28;20241;-77
2021/03/15 11:25:06;;;;;;;1.13;0.70;;;;;;;4.55;100.00;97235.00;5066476;28;20786;-79
2021/03/15 11:27:33;;;;;;;1.73;0.97;;;;;;;4.66;100.00;97237.28;5067601;28;20297;-77
2021/03/15 11:29:59;;;;;;;1.93;1.33;;;;;;;4.73;100.00;97244.78;5067983;28;20218;-77
2021/03/15 11:32:26;;;;;;;1.23;1.00;;;;;;;4.82;100.00;97243.69;5065654;28;20237;-76
2021/03/15 11:34:52;;;;;;;2.07;1.17;;;;;;;4.94;100.00;97235.53;5066170;28;20947;-77
2021/03/15 11:37:23;;;;;;;0.70;0.70;;;;;;;4.92;100.00;97239.91;5065993;28;20248;-76
2021/03/15 11:39:50;;;;;;;0.83;0.60;;;;;;;4.85;100.00;97234.97;5066597;28;20236;-77
2021/03/15 11:42:24;;;;;;;0.60;0.60;;;;;;;4.84;100.00;97236.72;5066055;28;20326;-76
2021/03/15 11:44:51;;;;;;;0.93;0.77;;;;;;;4.83;100.00;97235.88;5065381;28;20217;-78
2021/03/15 11:47:17;;;;;;;4.33;1.10;;;;;;;4.89;100.00;97239.16;5065781;28;20237;-76
2021/03/15 11:49:43;;;;;;;1.33;1.10;;;;;;;4.87;100.00;97240.94;5064376;28;20237;-75
2021/03/15 11:52:09;;;;;;;1.77;1.27;;;;;;;4.92;100.00;97233.91;5065195;28;20260;-76